sensor_id;sensor_type;location;lat;lon;timestamp;pressure;altitude;pressure_sealevel;temperature;humidity
56402;BME280;42299;35.160;26.100;2023-03-20T00:00:34;101391.97;;;13.83;100.00
56402;BME280;42299;35.160;26.100;2023-03-20T00:01:57;101380.47;;;13.83;100.00
56402;BME280;42299;35.160;26.100;2023-03-20T00:03:18;101376.03;;;13.83;100.00
56402;BME280;42299;35.160;26.100;2023-03-20T00:04:41;101356.59;;;13.84;100.00
56402;BME280;42299;35.160;26.100;2023-03-20T00:06:03;101379.59;;;13.84;100.00
56402;BME280;42299;35.160;26.100;2023-03-20T00:07:25;101382.25;;;13.84;100.00
56402;BME280;42299;35.160;26.100;2023-03-20T00:08:48;101390.19;;;13.85;100.00
56402;BME280;42299;35.160;26.100;2023-03-20T00:10:11;101403.50;;;13.87;100.00
56402;BME280;42299;35.160;26.100;2023-03-20T00:11:36;101400.88;;;13.88;100.00
56402;BME280;42299;35.160;26.100;2023-03-20T00:13:02;101398.19;;;13.87;100.00
56402;BME280;42299;35.160;26.100;2023-03-20T00:14:26;101407.06;;;13.89;100.00
56402;BME280;42299;35.160;26.100;2023-03-20T00:15:47;101409.72;;;13.89;100.00
56402;BME280;42299;35.160;26.100;2023-03-20T00:17:10;101409.72;;;13.89;100.00
56402;BME280;42299;35.160;26.100;2023-03-20T00:18:37;101409.75;;;13.90;100.00
56402;BME280;42299;35.160;26.100;2023-03-20T00:20:02;101408.84;;;13.90;100.00
56402;BME280;42299;35.160;26.100;2023-03-20T00:21:23;101411.50;;;13.90;100.00
56402;BME280;42299;35.160;26.100;2023-03-20T00:22:46;101411.50;;;13.91;100.00
56402;BME280;42299;35.160;26.100;2023-03-20T00:24:07;101402.69;;;13.92;100.00
56402;BME280;42299;35.160;26.100;2023-03-20T00:25:29;101408.00;;;13.94;100.00
56402;BME280;42299;35.160;26.100;2023-03-20T00:26:54;101407.09;;;13.90;100.00
56402;BME280;42299;35.160;26.100;2023-03-20T00:28:36;101407.09;;;13.92;100.00
56402;BME280;42299;35.160;26.100;2023-03-20T00:30:00;101408.84;;;13.90;100.00
56402;BME280;42299;35.160;26.100;2023-03-20T00:31:24;101400.91;;;13.90;100.00
56402;BME280;42299;35.160;26.100;2023-03-20T00:32:47;101407.97;;;13.89;100.00
56402;BME280;42299;35.160;26.100;2023-03-20T00:34:11;101399.13;;;13.90;100.00
56402;BME280;42299;35.160;26.100;2023-03-20T00:35:34;101405.34;;;13.91;100.00
56402;BME280;42299;35.160;26.100;2023-03-20T00:36:57;101389.41;;;13.92;100.00
56402;BME280;42299;35.160;26.100;2023-03-20T00:38:18;101392.06;;;13.91;100.00
56402;BME280;42299;35.160;26.100;2023-03-20T00:39:40;101374.34;;;13.90;100.00
56402;BME280;42299;35.160;26.100;2023-03-20T00:41:14;101376.13;;;13.89;100.00
56402;BME280;42299;35.160;26.100;2023-03-20T00:42:44;101375.19;;;13.87;100.00
56402;BME280;42299;35.160;26.100;2023-03-20T00:44:18;101368.09;;;13.86;100.00
56402;BME280;42299;35.160;26.100;2023-03-20T00:45:43;101368.06;;;13.85;100.00
56402;BME280;42299;35.160;26.100;2023-03-20T00:47:12;101368.09;;;13.86;100.00
56402;BME280;42299;35.160;26.100;2023-03-20T00:48:36;101371.69;;;13.90;100.00
56402;BME280;42299;35.160;26.100;2023-03-20T00:50:00;101360.22;;;13.91;100.00
56402;BME280;42299;35.160;26.100;2023-03-20T00:51:21;101369.94;;;13.90;100.00
56402;BME280;42299;35.160;26.100;2023-03-20T00:52:43;101377.00;;;13.91;100.00
56402;BME280;42299;35.160;26.100;2023-03-20T00:54:11;101369.94;;;13.92;100.00
56402;BME280;42299;35.160;26.100;2023-03-20T00:55:34;101368.19;;;13.91;100.00
56402;BME280;42299;35.160;26.100;2023-03-20T00:56:58;101365.53;;;13.91;100.00
56402;BME280;42299;35.160;26.100;2023-03-20T00:58:23;101368.19;;;13.91;100.00
56402;BME280;42299;35.160;26.100;2023-03-20T00:59:51;101366.41;;;13.90;100.00
56402;BME280;42299;35.160;26.100;2023-03-20T01:01:13;101365.50;;;13.89;100.00
56402;BME280;42299;35.160;26.100;2023-03-20T01:02:36;101363.75;;;13.90;100.00
56402;BME280;42299;35.160;26.100;2023-03-20T01:03:57;101346.94;;;13.91;100.00
56402;BME280;42299;35.160;26.100;2023-03-20T01:05:20;101365.53;;;13.91;100.00
56402;BME280;42299;35.160;26.100;2023-03-20T01:06:41;101368.19;;;13.91;100.00
56402;BME280;42299;35.160;26.100;2023-03-20T01:08:12;101364.63;;;13.92;100.00
56402;BME280;42299;35.160;26.100;2023-03-20T01:09:34;101366.38;;;13.91;100.00
56402;BME280;42299;35.160;26.100;2023-03-20T01:10:57;101343.41;;;13.90;100.00
56402;BME280;42299;35.160;26.100;2023-03-20T01:12:19;101363.75;;;13.90;100.00
56402;BME280;42299;35.160;26.100;2023-03-20T01:13:42;101361.94;;;13.89;100.00
56402;BME280;42299;35.160;26.100;2023-03-20T01:15:14;101354.88;;;13.89;100.00
56402;BME280;42299;35.160;26.100;2023-03-20T01:16:36;101343.38;;;13.89;100.00
56402;BME280;42299;35.160;26.100;2023-03-20T01:18:11;101338.09;;;13.90;100.00
56402;BME280;42299;35.160;26.100;2023-03-20T01:19:34;101344.28;;;13.91;100.00
56402;BME280;42299;35.160;26.100;2023-03-20T01:20:57;101327.44;;;13.89;100.00
56402;BME280;42299;35.160;26.100;2023-03-20T01:22:18;101332.75;;;13.89;100.00
56402;BME280;42299;35.160;26.100;2023-03-20T01:23:41;101334.50;;;13.87;100.00
56402;BME280;42299;35.160;26.100;2023-03-20T01:25:03;101334.50;;;13.87;100.00
56402;BME280;42299;35.160;26.100;2023-03-20T01:26:29;101341.53;;;13.83;100.00
56402;BME280;42299;35.160;26.100;2023-03-20T01:27:53;101336.16;;;13.79;100.00
56402;BME280;42299;35.160;26.100;2023-03-20T01:29:19;101339.69;;;13.76;100.00
56402;BME280;42299;35.160;26.100;2023-03-20T01:30:42;101332.56;;;13.71;100.00
56402;BME280;42299;35.160;26.100;2023-03-20T01:32:08;101324.56;;;13.69;100.00
56402;BME280;42299;35.160;26.100;2023-03-20T01:33:33;101335.09;;;13.63;100.00
56402;BME280;42299;35.160;26.100;2023-03-20T01:34:56;101342.16;;;13.61;100.00
56402;BME280;42299;35.160;26.100;2023-03-20T01:36:21;101358.94;;;13.59;100.00
56402;BME280;42299;35.160;26.100;2023-03-20T01:37:45;101347.38;;;13.55;100.00
56402;BME280;42299;35.160;26.100;2023-03-20T01:39:08;101348.22;;;13.52;100.00
56402;BME280;42299;35.160;26.100;2023-03-20T01:40:32;101353.56;;;13.55;100.00
56402;BME280;42299;35.160;26.100;2023-03-20T01:41:57;101349.19;;;13.59;100.00
56402;BME280;42299;35.160;26.100;2023-03-20T01:43:24;101347.50;;;13.64;100.00
56402;BME280;42299;35.160;26.100;2023-03-20T01:44:47;101353.72;;;13.65;100.00
56402;BME280;42299;35.160;26.100;2023-03-20T01:46:15;101351.94;;;13.67;100.00
56402;BME280;42299;35.160;26.100;2023-03-20T01:47:40;101336.03;;;13.68;100.00
56402;BME280;42299;35.160;26.100;2023-03-20T01:50:08;101359.97;;;13.71;100.00
56402;BME280;42299;35.160;26.100;2023-03-20T01:50:55;101347.59;;;13.72;100.00
56402;BME280;42299;35.160;26.100;2023-03-20T01:52:19;101348.50;;;13.74;100.00
56402;BME280;42299;35.160;26.100;2023-03-20T01:53:41;101343.25;;;13.77;100.00
56402;BME280;42299;35.160;26.100;2023-03-20T01:55:05;101349.44;;;13.79;100.00
56402;BME280;42299;35.160;26.100;2023-03-20T01:56:29;101348.59;;;13.81;100.00
56402;BME280;42299;35.160;26.100;2023-03-20T01:57:56;101348.59;;;13.81;100.00
56402;BME280;42299;35.160;26.100;2023-03-20T01:59:23;101335.31;;;13.81;100.00
56402;BME280;42299;35.160;26.100;2023-03-20T02:00:48;101353.91;;;13.81;100.00
56402;BME280;42299;35.160;26.100;2023-03-20T02:02:14;101335.28;;;13.80;100.00
56402;BME280;42299;35.160;26.100;2023-03-20T02:03:37;101345.00;;;13.79;100.00
56402;BME280;42299;35.160;26.100;2023-03-20T02:05:03;101338.81;;;13.79;100.00
56402;BME280;42299;35.160;26.100;2023-03-20T02:06:27;101322.00;;;13.77;100.00
56402;BME280;42299;35.160;26.100;2023-03-20T02:08:04;101344.06;;;13.73;100.00
56402;BME280;42299;35.160;26.100;2023-03-20T02:09:31;101341.38;;;13.70;100.00
56402;BME280;42299;35.160;26.100;2023-03-20T02:10:55;101328.97;;;13.69;100.00
56402;BME280;42299;35.160;26.100;2023-03-20T02:12:21;101331.59;;;13.64;100.00
56402;BME280;42299;35.160;26.100;2023-03-20T02:13:43;101330.59;;;13.56;100.00
56402;BME280;42299;35.160;26.100;2023-03-20T02:15:07;101335.88;;;13.54;100.00
56402;BME280;42299;35.160;26.100;2023-03-20T02:16:45;101327.88;;;13.50;100.00
56402;BME280;42299;35.160;26.100;2023-03-20T02:18:16;101301.28;;;13.47;100.00
56402;BME280;42299;35.160;26.100;2023-03-20T02:19:46;101345.50;;;13.45;100.00
56402;BME280;42299;35.160;26.100;2023-03-20T02:21:40;101348.06;;;13.39;100.00
56402;BME280;42299;35.160;26.100;2023-03-20T02:23:46;101344.47;;;13.35;100.00
56402;BME280;42299;35.160;26.100;2023-03-20T02:25:48;101353.19;;;13.28;100.00
56402;BME280;42299;35.160;26.100;2023-03-20T02:27:24;101362.88;;;13.26;100.00
56402;BME280;42299;35.160;26.100;2023-03-20T02:31:02;101371.72;;;13.25;100.00
56402;BME280;42299;35.160;26.100;2023-03-20T02:36:49;101368.28;;;13.31;100.00
56402;BME280;42299;35.160;26.100;2023-03-20T02:38:42;101367.41;;;13.33;100.00
56402;BME280;42299;35.160;26.100;2023-03-20T02:40:19;101355.06;;;13.35;100.00
56402;BME280;42299;35.160;26.100;2023-03-20T02:41:46;101359.59;;;13.42;100.00
56402;BME280;42299;35.160;26.100;2023-03-20T02:43:17;101367.59;;;13.45;100.00
56402;BME280;42299;35.160;26.100;2023-03-20T02:44:52;101364.06;;;13.46;100.00
56402;BME280;42299;35.160;26.100;2023-03-20T02:46:27;101339.28;;;13.46;100.00
56402;BME280;42299;35.160;26.100;2023-03-20T02:48:01;101357.84;;;13.46;100.00
56402;BME280;42299;35.160;26.100;2023-03-20T02:49:39;101334.88;;;13.46;100.00
56402;BME280;42299;35.160;26.100;2023-03-20T02:51:11;101339.34;;;13.49;100.00
56402;BME280;42299;35.160;26.100;2023-03-20T02:52:43;101344.69;;;13.52;100.00
56402;BME280;42299;35.160;26.100;2023-03-20T02:54:12;101338.53;;;13.54;100.00
56402;BME280;42299;35.160;26.100;2023-03-20T02:55:43;101336.75;;;13.55;100.00
56402;BME280;42299;35.160;26.100;2023-03-20T02:57:10;101350.06;;;13.56;100.00
56402;BME280;42299;35.160;26.100;2023-03-20T02:58:40;101337.72;;;13.59;100.00
56402;BME280;42299;35.160;26.100;2023-03-20T03:00:09;101342.19;;;13.64;100.00
56402;BME280;42299;35.160;26.100;2023-03-20T03:01:36;101342.22;;;13.67;100.00
56402;BME280;42299;35.160;26.100;2023-03-20T03:03:07;101345.81;;;13.71;100.00
56402;BME280;42299;35.160;26.100;2023-03-20T03:04:35;101330.81;;;13.74;100.00
56402;BME280;42299;35.160;26.100;2023-03-20T03:06:02;101341.47;;;13.79;100.00
56402;BME280;42299;35.160;26.100;2023-03-20T03:07:29;101357.41;;;13.80;100.00
56402;BME280;42299;35.160;26.100;2023-03-20T03:08:57;101354.78;;;13.82;100.00
56402;BME280;42299;35.160;26.100;2023-03-20T03:10:25;101364.56;;;13.86;100.00
56402;BME280;42299;35.160;26.100;2023-03-20T03:11:53;101363.69;;;13.87;100.00
56402;BME280;42299;35.160;26.100;2023-03-20T03:13:20;101371.69;;;13.90;100.00
56402;BME280;42299;35.160;26.100;2023-03-20T03:14:46;101371.69;;;13.90;100.00
56402;BME280;42299;35.160;26.100;2023-03-20T03:16:14;101366.41;;;13.93;100.00
56402;BME280;42299;35.160;26.100;2023-03-20T03:17:39;101369.06;;;13.93;100.00
56402;BME280;42299;35.160;26.100;2023-03-20T03:19:07;101360.25;;;13.95;100.00
56402;BME280;42299;35.160;26.100;2023-03-20T03:20:31;101371.78;;;13.96;100.00
56402;BME280;42299;35.160;26.100;2023-03-20T03:21:55;101374.44;;;13.96;100.00
56402;BME280;42299;35.160;26.100;2023-03-20T03:23:22;101370.91;;;13.97;100.00
56402;BME280;42299;35.160;26.100;2023-03-20T03:24:49;101372.66;;;13.98;100.00
56402;BME280;42299;35.160;26.100;2023-03-20T03:26:18;101375.31;;;13.98;100.00
56402;BME280;42299;35.160;26.100;2023-03-20T03:27:42;101365.59;;;13.98;100.00
56402;BME280;42299;35.160;26.100;2023-03-20T03:29:10;101370.00;;;13.98;100.00
56402;BME280;42299;35.160;26.100;2023-03-20T03:30:36;101375.31;;;13.98;100.00
56402;BME280;42299;35.160;26.100;2023-03-20T03:32:01;101368.25;;;14.00;100.00
56402;BME280;42299;35.160;26.100;2023-03-20T03:33:26;101362.94;;;14.00;100.00
56402;BME280;42299;35.160;26.100;2023-03-20T03:34:49;101368.25;;;14.00;100.00
56402;BME280;42299;35.160;26.100;2023-03-20T03:36:16;101361.19;;;14.01;100.00
56402;BME280;42299;35.160;26.100;2023-03-20T03:37:48;101360.31;;;14.00;100.00
56402;BME280;42299;35.160;26.100;2023-03-20T03:39:21;101369.16;;;14.01;100.00
56402;BME280;42299;35.160;26.100;2023-03-20T03:40:52;101362.97;;;14.02;100.00
56402;BME280;42299;35.160;26.100;2023-03-20T03:42:24;101364.75;;;14.01;100.00
56402;BME280;42299;35.160;26.100;2023-03-20T03:43:56;101365.63;;;14.02;100.00
56402;BME280;42299;35.160;26.100;2023-03-20T03:45:28;101362.09;;;14.01;100.00
56402;BME280;42299;35.160;26.100;2023-03-20T03:46:54;101361.22;;;14.02;100.00
56402;BME280;42299;35.160;26.100;2023-03-20T03:48:19;101355.00;;;14.02;100.00
56402;BME280;42299;35.160;26.100;2023-03-20T03:49:46;101353.25;;;14.02;100.00
56402;BME280;42299;35.160;26.100;2023-03-20T03:51:11;101354.16;;;14.03;100.00
56402;BME280;42299;35.160;26.100;2023-03-20T03:52:48;101342.66;;;14.04;100.00
56402;BME280;42299;35.160;26.100;2023-03-20T03:54:15;101340.91;;;14.04;100.00
56402;BME280;42299;35.160;26.100;2023-03-20T03:55:50;101340.88;;;14.03;100.00
56402;BME280;42299;35.160;26.100;2023-03-20T03:57:17;101339.06;;;14.00;100.00
56402;BME280;42299;35.160;26.100;2023-03-20T03:58:46;101336.38;;;13.98;100.00
56402;BME280;42299;35.160;26.100;2023-03-20T04:00:12;101329.31;;;13.96;100.00
56402;BME280;42299;35.160;26.100;2023-03-20T04:01:39;101337.25;;;13.94;100.00
56402;BME280;42299;35.160;26.100;2023-03-20T04:03:04;101330.16;;;13.95;100.00
56402;BME280;42299;35.160;26.100;2023-03-20T04:04:30;101325.72;;;13.94;100.00
56402;BME280;42299;35.160;26.100;2023-03-20T04:05:58;101345.19;;;13.93;100.00
56402;BME280;42299;35.160;26.100;2023-03-20T04:07:25;101349.66;;;13.95;100.00
56402;BME280;42299;35.160;26.100;2023-03-20T04:08:49;101347.84;;;13.93;100.00
56402;BME280;42299;35.160;26.100;2023-03-20T04:10:11;101364.63;;;13.92;100.00
56402;BME280;42299;35.160;26.100;2023-03-20T04:11:34;101368.13;;;13.88;100.00
56402;BME280;42299;35.160;26.100;2023-03-20T04:12:56;101369.91;;;13.89;100.00
56402;BME280;42299;35.160;26.100;2023-03-20T04:14:20;101360.22;;;13.91;100.00
56402;BME280;42299;35.160;26.100;2023-03-20T04:15:42;101365.53;;;13.91;100.00
56402;BME280;42299;35.160;26.100;2023-03-20T04:17:04;101371.69;;;13.90;100.00
56402;BME280;42299;35.160;26.100;2023-03-20T04:18:26;101370.84;;;13.91;100.00
56402;BME280;42299;35.160;26.100;2023-03-20T04:19:49;101365.53;;;13.92;100.00
56402;BME280;42299;35.160;26.100;2023-03-20T04:21:11;101371.75;;;13.94;100.00
56402;BME280;42299;35.160;26.100;2023-03-20T04:22:36;101361.19;;;13.98;100.00
56402;BME280;42299;35.160;26.100;2023-03-20T04:24:03;101362.03;;;13.98;100.00
56402;BME280;42299;35.160;26.100;2023-03-20T04:25:26;101375.28;;;13.95;100.00
56402;BME280;42299;35.160;26.100;2023-03-20T04:26:49;101371.72;;;13.93;100.00
56402;BME280;42299;35.160;26.100;2023-03-20T04:28:12;101378.81;;;13.94;100.00
56402;BME280;42299;35.160;26.100;2023-03-20T04:29:59;101378.81;;;13.94;100.00
56402;BME280;42299;35.160;26.100;2023-03-20T04:31:40;101382.25;;;13.87;100.00
56402;BME280;42299;35.160;26.100;2023-03-20T04:33:32;101388.44;;;13.86;100.00
56402;BME280;42299;35.160;26.100;2023-03-20T04:35:17;101394.66;;;13.86;100.00
56402;BME280;42299;35.160;26.100;2023-03-20T04:36:43;101394.66;;;13.88;100.00
56402;BME280;42299;35.160;26.100;2023-03-20T04:38:08;101400.91;;;13.90;100.00
56402;BME280;42299;35.160;26.100;2023-03-20T04:39:30;101400.91;;;13.90;100.00
56402;BME280;42299;35.160;26.100;2023-03-20T04:40:52;101401.75;;;13.89;100.00
56402;BME280;42299;35.160;26.100;2023-03-20T04:42:15;101392.88;;;13.87;100.00
56402;BME280;42299;35.160;26.100;2023-03-20T04:43:36;101391.09;;;13.84;100.00
56402;BME280;42299;35.160;26.100;2023-03-20T04:45:02;101400.84;;;13.87;100.00
56402;BME280;42299;35.160;26.100;2023-03-20T04:46:24;101391.16;;;13.89;100.00
56402;BME280;42299;35.160;26.100;2023-03-20T04:47:47;101400.91;;;13.93;100.00
56402;BME280;42299;35.160;26.100;2023-03-20T04:49:09;101402.72;;;13.95;100.00
56402;BME280;42299;35.160;26.100;2023-03-20T04:50:32;101404.50;;;13.98;100.00
56402;BME280;42299;35.160;26.100;2023-03-20T04:51:54;101416.91;;;13.98;100.00
56402;BME280;42299;35.160;26.100;2023-03-20T04:53:31;101413.38;;;13.98;100.00
56402;BME280;42299;35.160;26.100;2023-03-20T04:54:53;101422.22;;;13.99;100.00
56402;BME280;42299;35.160;26.100;2023-03-20T04:56:17;101427.53;;;13.99;100.00
56402;BME280;42299;35.160;26.100;2023-03-20T04:57:39;101425.78;;;14.00;100.00
56402;BME280;42299;35.160;26.100;2023-03-20T04:59:05;101416.03;;;14.00;100.00
56402;BME280;42299;35.160;26.100;2023-03-20T05:00:28;101423.19;;;14.04;100.00
56402;BME280;42299;35.160;26.100;2023-03-20T05:01:51;101425.84;;;14.06;100.00
56402;BME280;42299;35.160;26.100;2023-03-20T05:03:15;101422.38;;;14.10;100.00
56402;BME280;42299;35.160;26.100;2023-03-20T05:04:38;101415.31;;;14.13;100.00
56402;BME280;42299;35.160;26.100;2023-03-20T05:06:00;101418.91;;;14.15;100.00
56402;BME280;42299;35.160;26.100;2023-03-20T05:07:23;101425.06;;;14.13;100.00
56402;BME280;42299;35.160;26.100;2023-03-20T05:08:52;101413.53;;;14.11;100.00
56402;BME280;42299;35.160;26.100;2023-03-20T05:10:13;101426.78;;;14.08;100.00
56402;BME280;42299;35.160;26.100;2023-03-20T05:11:46;101412.59;;;14.07;100.00
56402;BME280;42299;35.160;26.100;2023-03-20T05:13:32;101431.16;;;14.04;100.00
56402;BME280;42299;35.160;26.100;2023-03-20T05:15:31;101422.25;;;14.01;100.00
56402;BME280;42299;35.160;26.100;2023-03-20T05:17:12;101432.84;;;13.98;100.00
56402;BME280;42299;35.160;26.100;2023-03-20T05:18:58;101431.06;;;13.96;100.00
56402;BME280;42299;35.160;26.100;2023-03-20T05:20:39;101423.94;;;13.94;100.00
56402;BME280;42299;35.160;26.100;2023-03-20T05:22:21;101423.81;;;13.85;100.00
56402;BME280;42299;35.160;26.100;2023-03-20T05:24:05;101426.47;;;13.85;100.00
56402;BME280;42299;35.160;26.100;2023-03-20T05:25:46;101438.88;;;13.84;100.00
56402;BME280;42299;35.160;26.100;2023-03-20T05:27:18;101453.91;;;13.85;100.00
56402;BME280;42299;35.160;26.100;2023-03-20T05:28:59;101453.03;;;13.86;100.00
56402;BME280;42299;35.160;26.100;2023-03-20T05:30:46;101456.59;;;13.87;100.00
56402;BME280;42299;35.160;26.100;2023-03-20T05:32:29;101450.41;;;13.88;100.00
56402;BME280;42299;35.160;26.100;2023-03-20T05:34:20;101458.44;;;13.91;100.00
56402;BME280;42299;35.160;26.100;2023-03-20T05:36:01;101453.16;;;13.95;100.00
56402;BME280;42299;35.160;26.100;2023-03-20T05:37:44;101463.00;;;14.03;100.00
56402;BME280;42299;35.160;26.100;2023-03-20T05:39:26;101462.25;;;14.14;100.00
56402;BME280;42299;35.160;26.100;2023-03-20T05:41:07;101468.56;;;14.24;100.00
56402;BME280;42299;35.160;26.100;2023-03-20T05:42:50;101464.22;;;14.30;100.00
56402;BME280;42299;35.160;26.100;2023-03-20T05:44:13;101464.31;;;14.38;100.00
56402;BME280;42299;35.160;26.100;2023-03-20T05:45:57;101467.03;;;14.41;100.00
56402;BME280;42299;35.160;26.100;2023-03-20T05:47:39;101466.13;;;14.41;100.00
56402;BME280;42299;35.160;26.100;2023-03-20T05:49:19;101474.13;;;14.42;100.00
56402;BME280;42299;35.160;26.100;2023-03-20T05:51:00;101462.66;;;14.46;100.00
56402;BME280;42299;35.160;26.100;2023-03-20T05:52:36;101454.75;;;14.52;100.00
56402;BME280;42299;35.160;26.100;2023-03-20T05:54:19;101469.84;;;14.55;100.00
56402;BME280;42299;35.160;26.100;2023-03-20T05:56:02;101468.97;;;14.56;100.00
56402;BME280;42299;35.160;26.100;2023-03-20T05:57:33;101478.78;;;14.61;100.00
56402;BME280;42299;35.160;26.100;2023-03-20T05:59:14;101474.38;;;14.66;100.00
56402;BME280;42299;35.160;26.100;2023-03-20T06:00:58;101477.09;;;14.72;100.00
56402;BME280;42299;35.160;26.100;2023-03-20T06:02:39;101484.16;;;14.70;100.00
56402;BME280;42299;35.160;26.100;2023-03-20T06:04:21;101475.41;;;14.79;100.00
56402;BME280;42299;35.160;26.100;2023-03-20T06:06:07;101486.97;;;14.83;100.00
56402;BME280;42299;35.160;26.100;2023-03-20T06:07:31;101479.91;;;14.88;100.00
56402;BME280;42299;35.160;26.100;2023-03-20T06:09:00;101487.03;;;14.92;100.00
56402;BME280;42299;35.160;26.100;2023-03-20T06:10:23;101479.97;;;14.97;100.00
56402;BME280;42299;35.160;26.100;2023-03-20T06:11:47;101464.97;;;15.00;100.00
56402;BME280;42299;35.160;26.100;2023-03-20T06:13:11;101473.84;;;15.04;100.00
56402;BME280;42299;35.160;26.100;2023-03-20T06:14:34;101482.78;;;15.10;100.00
56402;BME280;42299;35.160;26.100;2023-03-20T06:16:03;101466.91;;;15.20;100.00
56402;BME280;42299;35.160;26.100;2023-03-20T06:17:26;101480.25;;;15.26;100.00
56402;BME280;42299;35.160;26.100;2023-03-20T06:18:55;101473.19;;;15.31;100.00
56402;BME280;42299;35.160;26.100;2023-03-20T06:20:18;101473.22;;;15.34;100.00
56402;BME280;42299;35.160;26.100;2023-03-20T06:21:39;101478.56;;;15.35;100.00
56402;BME280;42299;35.160;26.100;2023-03-20T06:23:07;101470.56;;;15.34;100.00
56402;BME280;42299;35.160;26.100;2023-03-20T06:24:29;101476.78;;;15.34;100.00
56402;BME280;42299;35.160;26.100;2023-03-20T06:25:52;101472.31;;;15.32;100.00
56402;BME280;42299;35.160;26.100;2023-03-20T06:27:16;101481.16;;;15.28;100.00
56402;BME280;42299;35.160;26.100;2023-03-20T06:28:42;101484.66;;;15.24;100.00
56402;BME280;42299;35.160;26.100;2023-03-20T06:30:05;101483.78;;;15.22;100.00
56402;BME280;42299;35.160;26.100;2023-03-20T06:31:31;101489.09;;;15.25;100.00
56402;BME280;42299;35.160;26.100;2023-03-20T06:32:55;101489.09;;;15.25;100.00
56402;BME280;42299;35.160;26.100;2023-03-20T06:34:25;101486.47;;;15.26;100.00
56402;BME280;42299;35.160;26.100;2023-03-20T06:35:48;101496.22;;;15.26;100.00
56402;BME280;42299;35.160;26.100;2023-03-20T06:37:11;101493.56;;;15.26;100.00
56402;BME280;42299;35.160;26.100;2023-03-20T06:38:33;101497.09;;;15.25;100.00
56402;BME280;42299;35.160;26.100;2023-03-20T06:40:02;101481.16;;;15.31;100.00
56402;BME280;42299;35.160;26.100;2023-03-20T06:41:25;101483.94;;;15.41;100.00
56402;BME280;42299;35.160;26.100;2023-03-20T06:42:47;101480.53;;;15.59;100.00
56402;BME280;42299;35.160;26.100;2023-03-20T06:44:11;101481.66;;;15.98;100.00
56402;BME280;42299;35.160;26.100;2023-03-20T06:46:00;101477.41;;;16.56;100.00
56402;BME280;42299;35.160;26.100;2023-03-20T06:47:25;101466.84;;;16.85;100.00
56402;BME280;42299;35.160;26.100;2023-03-20T06:48:48;101475.75;;;16.93;100.00
56402;BME280;42299;35.160;26.100;2023-03-20T06:50:10;101477.50;;;16.94;100.00
56402;BME280;42299;35.160;26.100;2023-03-20T06:51:33;101473.97;;;16.86;100.00
56402;BME280;42299;35.160;26.100;2023-03-20T06:52:58;101483.72;;;16.78;100.00
56402;BME280;42299;35.160;26.100;2023-03-20T06:54:44;101475.72;;;16.70;100.00
56402;BME280;42299;35.160;26.100;2023-03-20T06:56:08;101485.50;;;16.69;100.00
56402;BME280;42299;35.160;26.100;2023-03-20T06:57:33;101481.00;;;16.61;100.00
56402;BME280;42299;35.160;26.100;2023-03-20T06:58:56;101480.09;;;16.56;100.00
56402;BME280;42299;35.160;26.100;2023-03-20T07:00:19;101484.50;;;16.40;100.00
56402;BME280;42299;35.160;26.100;2023-03-20T07:01:41;101485.31;;;16.25;100.00
56402;BME280;42299;35.160;26.100;2023-03-20T07:03:05;101481.72;;;16.16;100.00
56402;BME280;42299;35.160;26.100;2023-03-20T07:04:28;101479.94;;;16.15;100.00
56402;BME280;42299;35.160;26.100;2023-03-20T07:05:53;101484.41;;;16.23;100.00
56402;BME280;42299;35.160;26.100;2023-03-20T07:07:17;101480.91;;;16.35;100.00
56402;BME280;42299;35.160;26.100;2023-03-20T07:08:40;101482.69;;;16.33;100.00
56402;BME280;42299;35.160;26.100;2023-03-20T07:10:04;101487.09;;;16.28;100.00
56402;BME280;42299;35.160;26.100;2023-03-20T07:11:27;101488.00;;;16.30;100.00
56402;BME280;42299;35.160;26.100;2023-03-20T07:12:50;101487.16;;;16.39;100.00
56402;BME280;42299;35.160;26.100;2023-03-20T07:14:13;101488.97;;;16.50;100.00
56402;BME280;42299;35.160;26.100;2023-03-20T07:16:00;101499.69;;;16.61;100.00
56402;BME280;42299;35.160;26.100;2023-03-20T07:17:24;101506.81;;;16.68;100.00
56402;BME280;42299;35.160;26.100;2023-03-20T07:18:49;101501.50;;;16.76;100.00
56402;BME280;42299;35.160;26.100;2023-03-20T07:20:12;101511.28;;;16.75;100.00
56402;BME280;42299;35.160;26.100;2023-03-20T07:21:34;101506.84;;;16.72;100.00
56402;BME280;42299;35.160;26.100;2023-03-20T07:22:55;101503.25;;;16.60;100.00
56402;BME280;42299;35.160;26.100;2023-03-20T07:24:21;101517.38;;;16.44;100.00
56402;BME280;42299;35.160;26.100;2023-03-20T07:25:42;101517.28;;;16.28;100.00
56402;BME280;42299;35.160;26.100;2023-03-20T07:27:09;101512.81;;;16.21;100.00
56402;BME280;42299;35.160;26.100;2023-03-20T07:28:32;101525.28;;;16.21;100.00
56402;BME280;42299;35.160;26.100;2023-03-20T07:30:06;101519.94;;;16.24;100.00
56402;BME280;42299;35.160;26.100;2023-03-20T07:31:30;101520.91;;;16.33;100.00
56402;BME280;42299;35.160;26.100;2023-03-20T07:33:04;101523.63;;;16.47;100.00
56402;BME280;42299;35.160;26.100;2023-03-20T07:34:29;101521.00;;;16.59;100.00
56402;BME280;42299;35.160;26.100;2023-03-20T07:35:53;101525.50;;;16.66;100.00